Time;durP1;ratioP1;P1;durP2;ratioP2;P2;SDS_P1;SDS_P2;PMS_P1;PMS_P2;Temp;Humidity;BMP_temperature;BMP_pressure;BME280_temperature;BME280_humidity;BME280_pressure;Samples;Min_cycle;Max_cycle;Signal;HPM_P1;HPM_P2
2023/12/07 00:00:29;;;;;;;45.90;23.77;;;;;;;5.16;100.00;99066.72;5091699;28;20020;-71
2023/12/07 00:02:55;;;;;;;97.38;39.47;;;;;;;5.16;100.00;99094.44;5091973;28;20016;-71
2023/12/07 00:05:20;;;;;;;95.20;41.92;;;;;;;4.97;100.00;99074.34;5091740;28;20028;-71
2023/12/07 00:07:46;;;;;;;66.43;29.15;;;;;;;5.09;100.00;99082.13;5091750;28;20028;-71
2023/12/07 00:10:11;;;;;;;67.53;30.90;;;;;;;4.97;100.00;99057.72;5091752;28;20031;-71
2023/12/07 00:12:37;;;;;;;54.53;26.15;;;;;;;5.01;100.00;99064.28;5101208;28;20403;-71
2023/12/07 00:15:03;;;;;;;52.90;24.77;;;;;;;4.90;100.00;99052.56;5089646;28;20024;-71
2023/12/07 00:17:29;;;;;;;47.53;25.33;;;;;;;5.00;100.00;99062.63;5073371;28;20470;-71
2023/12/07 00:19:55;;;;;;;50.42;27.33;;;;;;;5.06;100.00;99078.84;5091530;28;20024;-70
2023/12/07 00:22:21;;;;;;;54.03;25.42;;;;;;;5.02;100.00;99060.38;5073372;28;20138;-71
2023/12/07 00:24:46;;;;;;;57.78;26.25;;;;;;;5.08;100.00;99073.00;5073270;28;20024;-71
2023/12/07 00:27:12;;;;;;;40.90;22.95;;;;;;;4.86;100.00;99070.94;5091420;28;20551;-71
2023/12/07 00:29:38;;;;;;;43.28;23.08;;;;;;;4.84;100.00;99065.72;5073249;28;20599;-71
2023/12/07 00:32:04;;;;;;;43.15;22.63;;;;;;;4.92;100.00;99092.69;5073030;28;20085;-71
2023/12/07 00:34:29;;;;;;;35.67;19.55;;;;;;;4.89;100.00;99073.91;5073108;28;20024;-71
2023/12/07 00:36:55;;;;;;;40.30;21.17;;;;;;;4.82;100.00;99070.72;5091370;28;20035;-71
2023/12/07 00:39:20;;;;;;;43.25;21.88;;;;;;;4.79;100.00;99074.09;5089288;28;20035;-71
2023/12/07 00:41:47;;;;;;;44.95;24.05;;;;;;;4.74;100.00;99082.53;5073050;28;20109;-71
2023/12/07 00:44:14;;;;;;;69.07;30.15;;;;;;;4.62;100.00;99081.06;5091098;28;20020;-71
2023/12/07 00:46:40;;;;;;;70.53;32.67;;;;;;;4.69;100.00;99090.91;5072948;28;20111;-71
2023/12/07 00:49:05;;;;;;;49.85;27.27;;;;;;;4.67;100.00;99098.72;5072786;28;20162;-71
2023/12/07 00:51:30;;;;;;;51.72;26.38;;;;;;;4.52;100.00;99106.16;5093560;28;20035;-71
2023/12/07 00:53:56;;;;;;;43.10;24.25;;;;;;;4.53;100.00;99093.16;5092333;28;20080;-71
2023/12/07 00:56:21;;;;;;;59.58;25.85;;;;;;;4.62;100.00;99094.09;5111371;28;20024;-71
2023/12/07 00:58:47;;;;;;;52.33;25.48;;;;;;;4.61;100.00;99090.50;5111134;28;20027;-71
2023/12/07 01:01:12;;;;;;;46.22;25.45;;;;;;;4.61;100.00;99090.50;5087271;28;20054;-71
2023/12/07 01:03:40;;;;;;;44.53;23.40;;;;;;;4.54;100.00;99103.91;5072890;28;20306;-72
2023/12/07 01:06:06;;;;;;;48.28;26.40;;;;;;;4.52;100.00;99072.94;5088877;28;20038;-71
2023/12/07 01:08:32;;;;;;;46.58;23.85;;;;;;;4.55;100.00;99080.63;5074437;28;20498;-71
2023/12/07 01:10:57;;;;;;;48.78;24.25;;;;;;;4.51;100.00;99101.75;5075625;28;20054;-71
2023/12/07 01:13:23;;;;;;;44.65;22.95;;;;;;;4.39;100.00;99070.97;5076761;28;20389;-71
2023/12/07 01:15:49;;;;;;;50.53;25.13;;;;;;;4.34;100.00;99081.00;5080574;28;20056;-71
2023/12/07 01:18:15;;;;;;;52.95;25.65;;;;;;;4.13;100.00;99074.16;5102631;28;20028;-71
2023/12/07 01:20:41;;;;;;;43.75;24.90;;;;;;;4.26;100.00;99078.91;5079951;28;20498;-71
2023/12/07 01:23:08;;;;;;;48.55;23.95;;;;;;;4.06;100.00;99075.34;5097414;28;20076;-71
2023/12/07 01:25:34;;;;;;;45.70;25.77;;;;;;;4.25;100.00;99077.28;5115217;28;20040;-71
2023/12/07 01:27:59;;;;;;;44.45;23.45;;;;;;;4.22;100.00;99067.63;5115264;28;20058;-71
2023/12/07 01:30:25;;;;;;;51.42;26.65;;;;;;;3.86;100.00;99070.97;5114869;28;20028;-71
2023/12/07 01:32:51;;;;;;;46.05;24.38;;;;;;;4.15;100.00;99083.78;5114787;28;20355;-71
2023/12/07 01:35:16;;;;;;;61.75;27.13;;;;;;;4.24;100.00;99070.09;5096733;28;20015;-71
2023/12/07 01:37:42;;;;;;;49.53;25.77;;;;;;;4.35;100.00;99077.09;5115040;28;20024;-71
2023/12/07 01:40:10;;;;;;;49.17;27.35;;;;;;;4.21;100.00;99065.97;5092648;28;20085;-71
2023/12/07 01:42:37;;;;;;;53.25;28.50;;;;;;;4.17;100.00;99061.34;5075163;28;20040;-71
2023/12/07 01:45:03;;;;;;;57.25;28.75;;;;;;;4.21;100.00;99065.97;5093205;28;20024;-71
2023/12/07 01:47:29;;;;;;;53.58;27.08;;;;;;;4.33;100.00;99084.88;5086628;28;20035;-71
2023/12/07 01:49:54;;;;;;;44.33;24.05;;;;;;;4.08;100.00;99066.75;5113546;28;20025;-71
2023/12/07 01:52:22;;;;;;;47.85;23.25;;;;;;;3.99;100.00;99068.56;5095193;28;20020;-71
2023/12/07 01:54:48;;;;;;;48.33;25.65;;;;;;;4.08;100.00;99069.53;5092337;28;20044;-71
2023/12/07 01:57:13;;;;;;;60.25;30.00;;;;;;;4.22;100.00;99084.22;5075187;28;20047;-71
2023/12/07 01:59:39;;;;;;;49.70;26.58;;;;;;;4.17;100.00;99069.66;5094090;28;20031;-71
2023/12/07 02:02:05;;;;;;;43.45;24.08;;;;;;;4.24;100.00;99055.41;5092912;28;20460;-71
2023/12/07 02:04:30;;;;;;;51.97;23.25;;;;;;;4.32;100.00;99066.63;5092937;28;20031;-71
2023/12/07 02:06:59;;;;;;;40.47;22.33;;;;;;;4.42;100.00;99065.63;5092816;28;20484;-71
2023/12/07 02:09:25;;;;;;;51.13;26.80;;;;;;;4.05;100.00;99062.63;5074665;28;20057;-71
2023/12/07 02:11:50;;;;;;;60.97;32.58;;;;;;;3.97;100.00;99048.66;5088150;28;20031;-71
2023/12/07 02:14:18;;;;;;;62.38;35.25;;;;;;;4.18;100.00;99061.06;5107805;28;20027;-71
2023/12/07 02:16:48;;;;;;;71.80;36.03;;;;;;;4.21;100.00;99059.59;5084730;28;20035;-71
2023/12/07 02:19:47;;;;;;;59.83;33.30;;;;;;;4.54;100.00;99081.75;5113139;28;20093;-71
2023/12/07 02:22:21;;;;;;;60.53;33.15;;;;;;;4.30;100.00;99065.28;5112603;28;20105;-71
2023/12/07 02:25:07;;;;;;;65.70;33.58;;;;;;;4.39;100.00;99065.41;5113104;28;20012;-71
2023/12/07 02:27:43;;;;;;;49.78;28.50;;;;;;;4.29;100.00;99080.28;5093757;28;20055;-71
2023/12/07 02:30:10;;;;;;;51.05;25.58;;;;;;;4.07;100.00;99067.88;5074302;28;20043;-71
2023/12/07 02:32:37;;;;;;;46.60;25.45;;;;;;;4.11;100.00;99090.25;5092450;28;20031;-71
2023/12/07 02:35:04;;;;;;;50.80;26.80;;;;;;;4.03;100.00;99087.03;5092427;28;20040;-71
2023/12/07 02:37:37;;;;;;;50.90;26.00;;;;;;;4.01;100.00;99066.31;5086045;28;20039;-71
2023/12/07 02:40:04;;;;;;;50.00;24.85;;;;;;;4.03;100.00;99069.59;5092358;28;20024;-71
2023/12/07 02:42:31;;;;;;;44.28;24.25;;;;;;;4.20;100.00;99088.41;5058852;28;1225667;-71
2023/12/07 02:44:57;;;;;;;49.78;24.05;;;;;;;4.14;100.00;99056.41;5113773;28;20050;-71
2023/12/07 02:47:22;;;;;;;48.45;24.23;;;;;;;4.19;100.00;99067.41;5082666;28;20020;-71
2023/12/07 02:49:48;;;;;;;50.42;25.20;;;;;;;4.23;100.00;99062.91;5075114;28;20035;-71
2023/12/07 02:52:13;;;;;;;41.63;23.75;;;;;;;4.21;100.00;99065.16;5093014;28;20020;-71
2023/12/07 02:54:39;;;;;;;46.90;25.60;;;;;;;4.12;100.00;99055.91;5074949;28;20527;-71
2023/12/07 02:57:04;;;;;;;45.80;24.73;;;;;;;4.06;100.00;99042.13;5074533;28;20012;-71
2023/12/07 02:59:30;;;;;;;39.65;23.10;;;;;;;4.04;100.00;99052.69;5086976;28;20051;-71
2023/12/07 03:01:55;;;;;;;37.25;21.83;;;;;;;4.14;100.00;99054.47;5090975;28;20093;-71
2023/12/07 03:04:21;;;;;;;42.15;21.42;;;;;;;4.22;100.00;99050.19;5093120;28;20028;-71
2023/12/07 03:06:46;;;;;;;38.38;21.15;;;;;;;4.31;100.00;99064.97;5080251;28;20020;-71
2023/12/07 03:09:12;;;;;;;45.40;23.90;;;;;;;4.22;100.00;99062.09;5075053;28;20032;-71
2023/12/07 03:11:37;;;;;;;45.92;26.30;;;;;;;4.10;100.00;99052.59;5092645;28;20027;-71
2023/12/07 03:14:03;;;;;;;85.13;35.95;;;;;;;4.04;100.00;99049.09;5077464;28;20423;-71
2023/12/07 03:16:29;;;;;;;58.10;29.20;;;;;;;4.00;100.00;99048.88;5082551;28;20051;-71
2023/12/07 03:18:54;;;;;;;44.72;25.60;;;;;;;4.19;100.00;99084.00;5091060;28;20062;-71
2023/12/07 03:21:20;;;;;;;47.72;26.38;;;;;;;3.95;100.00;99056.44;5076637;28;20035;-71
2023/12/07 03:23:45;;;;;;;52.25;26.15;;;;;;;3.92;100.00;99046.81;5085741;28;20475;-71
2023/12/07 03:26:10;;;;;;;44.45;23.95;;;;;;;3.74;100.00;99042.94;5107561;28;20484;-71
2023/12/07 03:28:37;;;;;;;40.92;23.92;;;;;;;3.75;100.00;99063.94;5074089;28;20504;-71
2023/12/07 03:31:03;;;;;;;37.20;22.33;;;;;;;3.66;100.00;99047.19;5074368;28;20069;-72
2023/12/07 03:33:28;;;;;;;43.35;22.40;;;;;;;3.89;100.00;99069.53;5073231;28;20530;-71
2023/12/07 03:35:54;;;;;;;114.30;70.35;;;;;;;3.91;100.00;99061.75;5080543;28;20026;-71
2023/12/07 03:38:19;;;;;;;51.70;29.50;;;;;;;3.85;100.00;99052.72;5090910;28;20027;-71
2023/12/07 03:40:47;;;;;;;44.08;22.27;;;;;;;3.84;100.00;99072.38;5077096;28;20028;-71
2023/12/07 03:43:13;;;;;;;34.17;20.55;;;;;;;3.85;100.00;99063.78;5073988;28;20487;-72
2023/12/07 03:45:38;;;;;;;34.55;20.88;;;;;;;3.75;100.00;99064.78;5090791;28;20059;-71
2023/12/07 03:48:04;;;;;;;36.90;20.10;;;;;;;3.48;100.00;99055.16;5092077;28;20463;-71
2023/12/07 03:50:30;;;;;;;33.72;18.80;;;;;;;3.45;100.00;99075.13;5092110;28;20020;-71
2023/12/07 03:52:55;;;;;;;36.75;22.70;;;;;;;3.34;100.00;99048.72;5098942;28;20027;-71
2023/12/07 03:55:21;;;;;;;56.30;32.67;;;;;;;3.56;100.00;99050.09;5094189;28;20084;-71
2023/12/07 03:57:46;;;;;;;36.97;21.08;;;;;;;3.53;100.00;99072.84;5093272;28;20462;-71
2023/12/07 04:00:12;;;;;;;33.42;20.33;;;;;;;3.43;100.00;99046.97;5111708;28;20031;-71
2023/12/07 04:02:38;;;;;;;35.22;19.33;;;;;;;3.43;100.00;99055.25;5089702;28;20039;-71
2023/12/07 04:05:04;;;;;;;35.55;20.75;;;;;;;3.59;100.00;99050.34;5091836;28;20020;-71
2023/12/07 04:07:29;;;;;;;34.33;20.35;;;;;;;3.67;100.00;99062.66;5091642;28;20036;-71
2023/12/07 04:09:56;;;;;;;38.45;20.17;;;;;;;3.65;100.00;99092.56;5090557;28;20020;-71
2023/12/07 04:12:23;;;;;;;40.72;20.92;;;;;;;3.65;100.00;99065.72;5084046;28;20031;-71
2023/12/07 04:14:49;;;;;;;39.53;21.73;;;;;;;3.80;100.00;99077.69;5091686;28;20028;-72
2023/12/07 04:17:15;;;;;;;46.85;25.88;;;;;;;3.84;100.00;99080.66;5090288;28;20046;-71
2023/12/07 04:19:40;;;;;;;48.72;23.85;;;;;;;3.69;100.00;99057.66;5092637;28;20032;-71
2023/12/07 04:22:05;;;;;;;44.15;22.55;;;;;;;3.69;100.00;99059.63;5098934;28;20024;-71
2023/12/07 04:24:31;;;;;;;39.90;22.95;;;;;;;3.81;100.00;99078.50;5090236;28;20028;-71
2023/12/07 04:26:56;;;;;;;47.25;22.83;;;;;;;3.76;100.00;99066.41;5089459;28;20032;-71
2023/12/07 04:29:22;;;;;;;41.47;21.52;;;;;;;3.78;100.00;99080.75;5073312;28;20024;-71
2023/12/07 04:31:47;;;;;;;41.63;20.60;;;;;;;3.77;100.00;99090.19;5077380;28;20031;-71
2023/12/07 04:34:13;;;;;;;34.15;19.27;;;;;;;3.67;100.00;99062.66;5090745;28;20043;-71
2023/12/07 04:36:38;;;;;;;35.90;19.45;;;;;;;3.76;100.00;99055.34;5090891;28;20028;-71
2023/12/07 04:39:03;;;;;;;40.90;21.17;;;;;;;3.74;100.00;99082.50;5091217;28;20083;-71
2023/12/07 04:41:29;;;;;;;45.45;23.52;;;;;;;3.69;100.00;99073.44;5072905;28;20105;-71
2023/12/07 04:43:54;;;;;;;43.20;22.05;;;;;;;3.68;100.00;99074.53;5072974;28;20480;-71
2023/12/07 04:46:20;;;;;;;38.63;21.08;;;;;;;3.79;100.00;99065.81;5094030;28;20027;-71
2023/12/07 04:48:46;;;;;;;49.10;25.60;;;;;;;3.68;100.00;99075.38;5072949;28;20020;-71
2023/12/07 04:51:11;;;;;;;49.92;23.85;;;;;;;3.73;100.00;99071.72;5091124;28;20038;-71
2023/12/07 04:53:37;;;;;;;45.55;24.42;;;;;;;3.63;100.00;99062.44;5072710;28;20041;-71
2023/12/07 04:56:02;;;;;;;44.60;25.13;;;;;;;3.75;100.00;99073.06;5091136;28;20035;-71
2023/12/07 04:58:28;;;;;;;49.72;25.60;;;;;;;3.78;100.00;99089.06;5090915;28;20031;-71
2023/12/07 05:00:53;;;;;;;48.97;26.38;;;;;;;3.72;100.00;99073.63;5095739;28;20032;-71
2023/12/07 05:03:18;;;;;;;45.60;26.67;;;;;;;3.81;100.00;99092.34;5082742;28;20028;-71
2023/12/07 05:05:44;;;;;;;55.33;30.02;;;;;;;3.69;100.00;99065.94;5072890;28;20028;-71
2023/12/07 05:08:09;;;;;;;51.22;30.52;;;;;;;3.67;100.00;99073.72;5090878;28;20035;-71
2023/12/07 05:10:35;;;;;;;54.78;31.30;;;;;;;3.70;100.00;99084.19;5072774;28;20024;-71
2023/12/07 05:13:00;;;;;;;64.30;32.40;;;;;;;3.71;100.00;99099.66;5100808;28;20032;-71
2023/12/07 05:15:26;;;;;;;64.60;38.85;;;;;;;3.76;100.00;99096.00;5093102;28;20422;-71
2023/12/07 05:17:51;;;;;;;64.03;36.38;;;;;;;3.70;100.00;99089.72;5092224;28;20028;-71
2023/12/07 05:20:22;;;;;;;60.15;33.20;;;;;;;3.67;100.00;99120.75;5091385;28;20032;-71
2023/12/07 05:22:47;;;;;;;81.47;40.22;;;;;;;3.63;100.00;99128.00;5090788;28;20035;-68
2023/12/07 05:25:12;;;;;;;77.20;36.35;;;;;;;3.68;100.00;99135.41;5090948;28;20384;-68
2023/12/07 05:27:38;;;;;;;58.67;29.90;;;;;;;3.69;100.00;99126.00;5091709;28;20424;-70
2023/12/07 05:30:04;;;;;;;43.05;26.92;;;;;;;3.63;100.00;99125.25;5077686;28;20411;-70
2023/12/07 05:32:29;;;;;;;67.03;33.50;;;;;;;3.65;100.00;99120.22;5091291;28;20173;-73
2023/12/07 05:34:55;;;;;;;72.95;40.15;;;;;;;3.74;100.00;99129.53;5088717;28;20024;-70
2023/12/07 05:37:20;;;;;;;57.72;34.42;;;;;;;3.59;100.00;99130.53;5100534;28;20024;-70
2023/12/07 05:39:46;;;;;;;61.70;31.83;;;;;;;3.39;100.00;99139.94;5080518;28;20036;-70
2023/12/07 05:42:11;;;;;;;51.90;26.95;;;;;;;3.47;100.00;99138.44;5103249;28;20144;-70
2023/12/07 05:44:36;;;;;;;53.70;30.27;;;;;;;3.46;100.00;99140.38;5108118;28;20076;-70
2023/12/07 05:47:02;;;;;;;52.97;31.55;;;;;;;3.56;100.00;99141.38;5111053;28;20084;-70
2023/12/07 05:49:27;;;;;;;73.85;38.85;;;;;;;3.36;100.00;99140.50;5109972;28;20027;-70
2023/12/07 05:51:53;;;;;;;69.53;39.15;;;;;;;2.89;100.00;99146.53;5085282;28;20024;-70
2023/12/07 05:54:20;;;;;;;58.53;32.53;;;;;;;2.48;100.00;99145.00;5098981;28;20042;-70
2023/12/07 05:56:46;;;;;;;61.83;29.50;;;;;;;2.35;100.00;99159.44;5100035;28;20356;-72
2023/12/07 05:59:12;;;;;;;76.70;42.88;;;;;;;2.47;100.00;99153.56;5099022;28;20027;-76
2023/12/07 06:01:37;;;;;;;64.68;38.92;;;;;;;2.60;100.00;99155.66;5108394;28;20541;-72
2023/12/07 06:04:02;;;;;;;50.88;30.75;;;;;;;2.38;100.00;99150.59;5096175;28;20403;-72
2023/12/07 06:06:28;;;;;;;58.45;34.90;;;;;;;2.35;100.00;99156.66;5114353;28;20153;-72
2023/12/07 06:08:53;;;;;;;45.17;27.08;;;;;;;2.14;100.00;99156.00;5096082;28;20031;-73
2023/12/07 06:11:19;;;;;;;48.03;26.70;;;;;;;2.12;100.00;99159.06;5114488;28;20031;-72
2023/12/07 06:13:44;;;;;;;47.63;28.30;;;;;;;2.17;100.00;99161.78;5113378;28;20292;-73
2023/12/07 06:16:13;;;;;;;47.22;26.92;;;;;;;2.20;100.00;99163.97;5093824;28;20031;-73
2023/12/07 06:18:39;;;;;;;43.80;23.83;;;;;;;2.17;100.00;99167.28;5093925;28;20028;-72
2023/12/07 06:21:05;;;;;;;39.92;23.02;;;;;;;2.21;100.00;99168.38;5075645;28;20032;-72
2023/12/07 06:23:30;;;;;;;48.97;23.42;;;;;;;2.34;100.00;99166.91;5093803;28;20056;-72
2023/12/07 06:25:55;;;;;;;42.17;22.13;;;;;;;2.34;100.00;99175.19;5079080;28;20081;-73
2023/12/07 06:28:21;;;;;;;37.50;20.83;;;;;;;2.32;100.00;99180.16;5114043;28;20027;-72
2023/12/07 06:30:46;;;;;;;37.75;19.17;;;;;;;2.29;100.00;99180.72;5084959;28;20044;-72
2023/12/07 06:33:12;;;;;;;37.83;18.95;;;;;;;2.43;100.00;99178.16;5099206;28;20090;-73
2023/12/07 06:35:38;;;;;;;38.55;20.70;;;;;;;2.71;100.00;99180.41;5100513;28;20031;-72
2023/12/07 06:38:04;;;;;;;36.70;18.77;;;;;;;2.80;100.00;99186.97;5076467;28;20105;-73
2023/12/07 06:40:31;;;;;;;49.08;29.10;;;;;;;2.98;100.00;99190.94;5091362;28;20024;-73
2023/12/07 06:42:56;;;;;;;32.08;18.27;;;;;;;2.81;100.00;99189.44;5081436;28;20432;-74
2023/12/07 06:45:22;;;;;;;32.17;16.92;;;;;;;2.82;100.00;99181.97;5101965;28;20024;-74
2023/12/07 06:47:47;;;;;;;24.35;14.27;;;;;;;2.57;100.00;99192.13;5102245;28;20053;-79
2023/12/07 06:50:13;;;;;;;22.00;14.25;;;;;;;2.60;100.00;99196.25;5108778;28;21262;-77
2023/12/07 06:52:39;;;;;;;22.80;14.38;;;;;;;2.55;100.00;99194.38;5085380;28;20076;-81
2023/12/07 06:55:05;;;;;;;25.45;15.88;;;;;;;2.73;100.00;99194.75;5093737;28;20035;-80
2023/12/07 06:57:31;;;;;;;26.65;14.98;;;;;;;2.92;100.00;99181.88;5097656;28;20267;-79
2023/12/07 06:59:56;;;;;;;20.27;13.82;;;;;;;3.11;100.00;99194.13;5089465;28;20042;-80
2023/12/07 07:02:23;;;;;;;24.52;17.38;;;;;;;3.20;100.00;99193.19;5082937;28;20031;-80
2023/12/07 07:04:49;;;;;;;21.55;16.85;;;;;;;3.39;100.00;99199.91;5093081;28;20474;-77
2023/12/07 07:07:15;;;;;;;22.50;16.63;;;;;;;3.40;100.00;99201.56;5102174;28;20028;-81
2023/12/07 07:09:40;;;;;;;22.50;16.65;;;;;;;3.55;100.00;99197.81;5097222;28;20079;-80
2023/12/07 07:12:06;;;;;;;25.90;15.15;;;;;;;3.69;100.00;99198.72;5078816;28;20480;-80
2023/12/07 07:14:31;;;;;;;19.80;13.10;;;;;;;3.87;100.00;99197.13;5104798;28;20031;-80
2023/12/07 07:16:57;;;;;;;22.65;14.13;;;;;;;4.03;100.00;99207.97;5085325;28;20027;-80
2023/12/07 07:19:22;;;;;;;17.85;12.10;;;;;;;4.03;100.00;99196.91;5085492;28;20027;-78
2023/12/07 07:21:48;;;;;;;35.33;18.52;;;;;;;4.01;100.00;99200.00;5089905;28;20028;-77
2023/12/07 07:24:14;;;;;;;17.55;11.68;;;;;;;3.81;100.00;99186.41;5111776;28;20027;-82
2023/12/07 07:26:40;;;;;;;20.17;14.35;;;;;;;3.86;100.00;99200.16;5090858;28;20042;-78
2023/12/07 07:29:06;;;;;;;18.70;12.85;;;;;;;4.04;100.00;99204.91;5109938;28;20028;-78
2023/12/07 07:31:31;;;;;;;20.60;13.85;;;;;;;4.26;100.00;99209.06;5102179;28;20023;-75
2023/12/07 07:33:57;;;;;;;20.10;13.35;;;;;;;4.44;100.00;99212.09;5104324;28;20079;-74
2023/12/07 07:36:22;;;;;;;17.38;11.68;;;;;;;4.22;100.00;99211.59;5111188;28;20073;-75
2023/12/07 07:38:48;;;;;;;21.58;13.07;;;;;;;4.25;100.00;99212.94;5091402;28;20024;-79
2023/12/07 07:41:14;;;;;;;22.77;12.95;;;;;;;4.32;100.00;99216.16;5099529;28;20445;-72
2023/12/07 07:43:39;;;;;;;41.70;33.78;;;;;;;4.44;100.00;99218.47;5089238;28;20036;-72
2023/12/07 07:46:06;;;;;;;26.27;16.55;;;;;;;4.57;100.00;99207.75;5079352;28;20552;-73
2023/12/07 07:48:31;;;;;;;19.90;13.35;;;;;;;4.70;100.00;99220.84;5098603;28;20028;-74
2023/12/07 07:50:58;;;;;;;23.33;13.25;;;;;;;4.53;100.00;99215.84;5104931;28;20385;-75
2023/12/07 07:53:24;;;;;;;21.95;13.70;;;;;;;4.71;100.00;99221.69;5097661;28;20420;-71
2023/12/07 07:55:49;;;;;;;33.17;15.15;;;;;;;4.62;100.00;99218.75;5103433;28;20075;-74
2023/12/07 07:58:15;;;;;;;24.25;13.60;;;;;;;4.57;100.00;99219.66;5099068;28;20020;-73
2023/12/07 08:00:40;;;;;;;21.95;12.25;;;;;;;4.53;100.00;99221.38;5073569;28;20032;-74
2023/12/07 08:03:06;;;;;;;22.10;13.88;;;;;;;4.61;100.00;99223.47;5102208;28;20027;-74
2023/12/07 08:05:33;;;;;;;24.13;13.10;;;;;;;4.59;100.00;99220.19;5073380;28;20102;-74
2023/12/07 08:07:58;;;;;;;26.20;13.30;;;;;;;4.65;100.00;99234.78;5098692;28;20521;-75
2023/12/07 08:10:24;;;;;;;26.63;14.80;;;;;;;4.65;100.00;99232.03;5078832;28;20024;-81
2023/12/07 08:12:50;;;;;;;27.13;14.20;;;;;;;4.82;100.00;99233.41;5085087;28;20035;-81
2023/12/07 08:15:15;;;;;;;24.67;13.38;;;;;;;4.82;100.00;99233.41;5088139;28;20027;-80
2023/12/07 08:17:41;;;;;;;38.03;18.05;;;;;;;4.84;100.00;99225.63;5102209;28;20046;-80
2023/12/07 08:20:10;;;;;;;44.08;21.10;;;;;;;5.11;100.00;99238.75;5086179;28;20027;-86
2023/12/07 08:22:40;;;;;;;33.85;17.67;;;;;;;5.09;100.00;99231.84;5092866;28;20027;-78
2023/12/07 08:25:07;;;;;;;25.95;14.60;;;;;;;5.18;100.00;99236.38;5108193;28;20107;-77
2023/12/07 08:27:33;;;;;;;24.38;13.80;;;;;;;5.28;100.00;99238.16;5089889;28;20065;-76
2023/12/07 08:29:59;;;;;;;25.05;13.93;;;;;;;5.25;100.00;99240.72;5109279;28;20120;-84
2023/12/07 08:32:25;;;;;;;21.92;13.20;;;;;;;5.25;100.00;99233.22;5109414;28;20407;-77
2023/12/07 08:34:52;;;;;;;24.08;13.82;;;;;;;5.47;100.00;99237.25;5109610;28;20020;-79
2023/12/07 08:37:18;;;;;;;25.00;13.40;;;;;;;5.58;100.00;99243.44;5082958;28;20252;-78
2023/12/07 08:39:43;;;;;;;25.35;13.23;;;;;;;5.57;100.00;99239.84;5099481;28;20560;-76
2023/12/07 08:42:09;;;;;;;30.05;17.73;;;;;;;5.18;100.00;99235.56;5089522;28;20039;-77
2023/12/07 08:44:34;;;;;;;36.25;22.00;;;;;;;5.46;100.00;99246.72;5084125;28;20489;-77
2023/12/07 08:46:59;;;;;;;24.77;15.77;;;;;;;5.70;100.00;99251.25;5081821;28;20054;-77
2023/12/07 08:49:25;;;;;;;22.10;13.45;;;;;;;5.71;100.00;99234.31;5079703;28;20400;-77
2023/12/07 08:51:52;;;;;;;22.92;13.05;;;;;;;5.82;100.00;99223.00;5077698;28;20455;-77
2023/12/07 08:54:18;;;;;;;21.63;13.32;;;;;;;6.04;100.00;99234.22;5074640;28;20507;-77
2023/12/07 08:56:47;;;;;;;27.08;15.95;;;;;;;6.32;100.00;99245.25;5091369;28;20047;-77
2023/12/07 08:59:12;;;;;;;22.67;14.10;;;;;;;6.51;100.00;99246.25;5073524;28;20016;-76
2023/12/07 09:01:38;;;;;;;32.03;18.23;;;;;;;6.52;100.00;99237.63;5087130;28;20495;-77
2023/12/07 09:04:03;;;;;;;31.10;17.42;;;;;;;6.47;100.00;99234.94;5096367;28;20019;-77
2023/12/07 09:06:29;;;;;;;27.35;17.33;;;;;;;6.62;100.00;99239.31;5095514;28;20053;-80
2023/12/07 09:08:55;;;;;;;28.77;17.55;;;;;;;6.59;100.00;99239.97;5082615;28;20467;-80
2023/12/07 09:11:21;;;;;;;33.10;19.60;;;;;;;6.84;100.00;99240.47;5106606;28;20515;-77
2023/12/07 09:13:46;;;;;;;43.45;18.95;;;;;;;7.05;100.00;99232.44;5108803;28;20320;-83
2023/12/07 09:16:12;;;;;;;36.25;21.38;;;;;;;7.10;100.00;99232.28;5087843;28;20046;-83
2023/12/07 09:18:37;;;;;;;33.13;20.58;;;;;;;7.32;100.00;99233.41;5095095;28;20016;-77
2023/12/07 09:21:03;;;;;;;48.17;28.70;;;;;;;7.41;100.00;99222.31;5094387;28;20054;-77
2023/12/07 09:23:28;;;;;;;46.03;23.08;;;;;;;7.42;100.00;99219.22;5073105;28;20402;-77
2023/12/07 09:25:54;;;;;;;40.88;25.30;;;;;;;7.61;100.00;99204.25;5089942;28;20392;-78
2023/12/07 09:28:19;;;;;;;58.53;32.53;;;;;;;7.57;100.00;99211.59;5089875;28;20085;-76
2023/12/07 09:30:45;;;;;;;61.90;36.38;;;;;;;7.26;100.00;99201.31;5097205;28;20062;-79
2023/12/07 09:33:10;;;;;;;56.30;31.88;;;;;;;7.50;100.00;99198.13;5112977;28;20042;-80
2023/12/07 09:35:36;;;;;;;49.40;30.20;;;;;;;7.59;100.00;99207.34;5103454;28;20020;-79
2023/12/07 09:38:01;;;;;;;55.83;34.70;;;;;;;7.85;100.00;99208.59;5100578;28;20510;-79
2023/12/07 09:40:27;;;;;;;82.93;56.45;;;;;;;7.96;100.00;99204.38;5109870;28;20076;-79
2023/12/07 09:42:53;;;;;;;56.15;35.10;;;;;;;8.00;100.00;99210.09;5083537;28;20048;-79
2023/12/07 09:45:20;;;;;;;34.63;20.98;;;;;;;7.64;100.00;99198.03;5093594;28;20027;-82
2023/12/07 09:47:51;;;;;;;37.30;22.80;;;;;;;7.78;100.00;99192.34;5112884;28;20095;-82
2023/12/07 09:50:21;;;;;;;31.48;19.17;;;;;;;7.58;100.00;99202.09;5107027;28;20024;-77
2023/12/07 09:52:51;;;;;;;33.00;20.90;;;;;;;7.75;100.00;99192.19;5103225;28;20348;-76
2023/12/07 09:55:18;;;;;;;25.77;16.80;;;;;;;7.97;100.00;99199.59;5097776;28;20499;-76
2023/12/07 09:57:43;;;;;;;109.78;56.90;;;;;;;8.15;100.00;99203.25;5097201;28;20035;-78
2023/12/07 10:00:14;;;;;;;54.78;26.98;;;;;;;7.84;100.00;99198.56;5109800;28;20015;-78
2023/12/07 10:02:41;;;;;;;;;;;;;;;7.55;100.00;99197.19;5113489;28;20035;-79
2023/12/07 10:05:09;;;;;;;34.83;19.42;;;;;;;7.52;100.00;99193.06;5113701;28;19912;-76
2023/12/07 10:07:37;;;;;;;34.38;19.10;;;;;;;7.59;100.00;99189.81;5086165;28;20520;-79
2023/12/07 10:10:04;;;;;;;33.63;20.73;;;;;;;7.45;100.00;99174.03;5094757;28;20047;-82
2023/12/07 10:12:30;;;;;;;34.22;18.67;;;;;;;7.41;100.00;99186.97;5097185;28;20028;-81
2023/12/07 10:14:56;;;;;;;27.55;17.02;;;;;;;7.43;100.00;99183.88;5111598;28;20081;-79
2023/12/07 10:17:22;;;;;;;30.60;19.35;;;;;;;7.62;100.00;99180.00;5113459;28;20032;-76
2023/12/07 10:20:08;;;;;;;34.42;20.75;;;;;;;7.76;100.00;99179.91;5091264;28;20027;-80
2023/12/07 10:22:34;;;;;;;33.28;19.23;;;;;;;7.84;100.00;99177.13;5100680;28;20032;-79
2023/12/07 10:24:59;;;;;;;26.92;17.08;;;;;;;7.87;100.00;99179.25;5097782;28;20188;-78
2023/12/07 10:27:26;;;;;;;28.23;16.50;;;;;;;7.72;100.00;99179.72;5093044;28;20024;-79
2023/12/07 10:29:51;;;;;;;24.85;15.50;;;;;;;7.70;100.00;99180.03;5095141;28;20028;-76
2023/12/07 10:32:16;;;;;;;27.55;16.23;;;;;;;7.83;100.00;99163.53;5105510;28;20515;-77
2023/12/07 10:34:42;;;;;;;26.50;16.95;;;;;;;7.96;100.00;99178.47;5082596;28;20515;-77
2023/12/07 10:37:07;;;;;;;29.15;16.58;;;;;;;8.16;100.00;99177.00;5098978;28;20511;-74
2023/12/07 10:39:33;;;;;;;26.70;16.98;;;;;;;7.90;100.00;99171.41;5104002;28;20511;-75
2023/12/07 10:42:02;;;;;;;29.92;15.18;;;;;;;7.87;100.00;99164.53;5105534;28;20454;-76
2023/12/07 10:44:28;;;;;;;24.92;14.35;;;;;;;8.12;100.00;99173.25;5080208;28;20103;-74
2023/12/07 10:46:55;;;;;;;19.05;12.75;;;;;;;7.96;100.00;99153.41;5083339;28;20062;-73
2023/12/07 10:49:26;;;;;;;25.60;14.60;;;;;;;8.11;100.00;99163.25;5106570;28;20023;-75
2023/12/07 10:52:00;;;;;;;24.98;15.77;;;;;;;7.95;100.00;99160.13;5094263;28;20032;-75
2023/12/07 10:54:39;;;;;;;23.00;13.63;;;;;;;8.00;100.00;99157.16;5096873;28;20073;-75
2023/12/07 10:57:07;;;;;;;19.80;13.25;;;;;;;8.15;100.00;99161.44;5107871;28;20030;-75
2023/12/07 10:59:36;;;;;;;23.48;14.23;;;;;;;8.15;100.00;99169.81;5094444;28;20024;-75
2023/12/07 11:02:03;;;;;;;22.05;14.00;;;;;;;8.27;100.00;99161.63;5108773;28;20054;-74
2023/12/07 11:04:30;;;;;;;21.45;12.95;;;;;;;8.29;100.00;99156.53;5093642;28;20074;-75
2023/12/07 11:07:03;;;;;;;19.40;12.43;;;;;;;8.18;100.00;99158.00;5111734;28;20037;-76
2023/12/07 11:09:35;;;;;;;24.88;13.43;;;;;;;8.09;100.00;99154.41;5082407;28;20020;-74
2023/12/07 11:12:18;;;;;;;20.27;12.90;;;;;;;8.22;100.00;99153.44;5106915;28;20023;-75